Stations météo

réclame
Mon MeteoGroup
Rensjoen, Suède (2031): Température de l'air & dewpoint: 12.11.2018 17:00:00 - 18.11.2018 17:00:00 (CET)Rensjoen, Suède (2031): Vitesse du vent & gusts: 12.11.2018 17:00:00 - 18.11.2018 17:00:00 (CET)Rensjoen, Suède (2031): Direction du vent: 12.11.2018 17:00:00 - 18.11.2018 17:00:00 (CET)Rensjoen, Suède (2031): visibility: 12.11.2018 17:00:00 - 18.11.2018 17:00:00 (CET)Rensjoen, Suède (2031): Quantités de précipitations: 12.11.2018 17:00:00 - 18.11.2018 17:00:00 (CET)
Date & Time tt [°C] td [°C] ff [km/h] ff [knt] fx [km/h] fx [knt] dd vv [km] rr [mm]
18.11.2018 17:00:00 -8,5 -9,6 2 1 6 3 S 50 0,0
18.11.2018 16:00:00 -7,8 -8,7 3 1 5 3 SW 50 0,0
18.11.2018 15:00:00 -7,1 -8,3 0 0 7 4 N 50 0,0
18.11.2018 14:00:00 -5,7 -7,2 0 0 7 4 N 50 0,0
18.11.2018 13:00:00 -5,4 -7,1 5 3 8 4 SW 50 0,0
18.11.2018 12:00:00 -5,7 -6,9 5 3 8 4 NNW 50 0,0
18.11.2018 11:00:00 -6,0 -6,9 6 3 7 4 S 50 0,0
18.11.2018 10:00:00 -4,2 -5,7 3 1 7 4 N 50 0,0
18.11.2018 09:00:00 -3,5 -5,5 6 4 9 5 SSW 50 0,0
18.11.2018 08:00:00 -3,6 -5,6 4 2 18 10 S 50 0,0
18.11.2018 07:00:00 -3,0 -5,8 11 6 19 10 S 50 0,0
18.11.2018 06:00:00 -4,2 -5,9 10 5 13 7 S 50 0,0
18.11.2018 05:00:00 -5,8 -7,0 3 2 7 4 SSE 50 0,0
18.11.2018 04:00:00 -6,4 -7,2 6 4 9 5 SSW 50 0,0
18.11.2018 03:00:00 -6,1 -7,2 2 1 6 4 WSW 50 0,0
18.11.2018 02:00:00 -6,4 -7,1 7 4 8 5 SW 50 0,0
18.11.2018 01:00:00 -4,7 -5,8 2 1 7 4 SW 50 0,0
18.11.2018 00:00:00 -4,7 -6,2 4 2 10 5 SW 50 0,0
17.11.2018 23:00:00 -2,0 -3,9 3 2 17 9 NNE 50 0,0
17.11.2018 22:00:00 -0,4 -3,3 10 6 19 10 N 50 0,0
17.11.2018 21:00:00 0,1 -2,9 10 5 16 8 N 50 0,0
17.11.2018 20:00:00 -0,1 -4,0 3 2 25 14 ESE 50 0,0
17.11.2018 19:00:00 1,7 -3,4 18 10 47 26 N 50 0,0
17.11.2018 18:00:00 1,7 -2,8 24 13 59 32 N 50 0,0
17.11.2018 17:00:00 2,5 -3,0 33 18 53 29 NNW 50 0,0
17.11.2018 16:00:00 2,2 -1,8 27 15 72 39 NW 50 0,0
17.11.2018 15:00:00 2,7 -1,1 48 26 70 38 NNW 50 0,0
17.11.2018 14:00:00 2,5 -0,9 45 24 75 41 NNW 50 0,0
17.11.2018 13:00:00 3,3 -1,5 46 25 79 43 NNW 50 0,0
17.11.2018 12:00:00 3,7 -0,7 37 20 74 40 NNW 50 0,0
17.11.2018 11:00:00 4,0 0,0 46 25 84 46 NW 50 0,0
17.11.2018 10:00:00 4,2 0,7 46 25 71 38 NW 50 0,0
17.11.2018 09:00:00 4,2 0,9 37 20 61 33 NNW 50 0,0
17.11.2018 08:00:00 5,8 -1,1 36 20 69 37 NNW 50 0,0
17.11.2018 07:00:00 6,2 -1,5 46 25 73 39 NW 50 0,0
17.11.2018 06:00:00 6,6 -1,6 54 29 94 51 NW 50 0,0
17.11.2018 05:00:00 6,3 -1,1 44 24 85 46 NW 50 0,0
17.11.2018 04:00:00 6,1 -1,1 42 23 76 41 NW 50 0,0
17.11.2018 03:00:00 5,4 -1,7 18 10 52 28 W 50 0,0
17.11.2018 02:00:00 4,8 -1,0 19 11 58 31 W 50 0,0
17.11.2018 01:00:00 5,8 -0,9 32 17 54 29 NW 50 0,0
17.11.2018 00:00:00 5,4 -2,0 11 6 35 19 W 50 0,0
16.11.2018 23:00:00 5,8 -1,6 25 14 45 24 WNW 50 0,0
16.11.2018 22:00:00 3,6 -1,4 7 4 29 16 W 50 0,0
16.11.2018 21:00:00 4,9 -0,9 11 6 34 19 W 50 0,0
16.11.2018 20:00:00 4,8 0,0 16 9 46 25 W 50 0,0
16.11.2018 19:00:00 6,1 -0,4 24 13 49 26 WSW 50 0,0
16.11.2018 18:00:00 5,6 0,2 15 8 34 18 WSW 50 0,0
16.11.2018 17:00:00 4,3 -0,5 3 2 42 23 S 50 0,0
16.11.2018 16:00:00 5,4 0,0 25 14 49 26 SW 50 0,0
16.11.2018 15:00:00 6,1 0,0 24 13 42 23 SW 50 0,0
16.11.2018 14:00:00 6,8 0,7 20 11 32 17 SW 50 0,0
16.11.2018 13:00:00 3,7 1,6 17 9 26 14 S 50 0,0
16.11.2018 12:00:00 4,7 1,7 11 6 26 14 SSE 50 0,0
16.11.2018 11:00:00 4,1 2,0 20 11 37 20 S 50 0,0
16.11.2018 10:00:00 4,3 1,8 18 10 26 14 SSE 50 0,0
16.11.2018 09:00:00 3,2 1,1 5 3 18 10 ESE 50 0,0
16.11.2018 08:00:00 4,1 1,5 14 7 29 16 S 50 0,0
16.11.2018 07:00:00 4,0 1,5 16 9 28 15 S 50 0,0
16.11.2018 06:00:00 3,3 1,0 13 7 22 12 ESE 50 0,0
16.11.2018 05:00:00 -2,0 -2,1 0 0 9 5 N 26 0,0
16.11.2018 04:00:00 -0,3 -2,0 4 2 13 7 E 43 0,0
16.11.2018 03:00:00 -3,3 -4,1 5 3 10 6 WSW 23 0,0
16.11.2018 02:00:00 -2,0 -3,1 8 5 10 6 NE 32 0,0
16.11.2018 01:00:00 -0,4 -1,8 3 2 19 10 S 50 0,0
16.11.2018 00:00:00 -0,7 -2,4 9 5 14 8 E 50 0,0
15.11.2018 23:00:00 1,7 -0,4 6 3 16 9 NE 50 0,0
15.11.2018 22:00:00 2,7 0,1 5 3 21 11 NE 50 0,0
15.11.2018 21:00:00 1,4 -2,4 7 4 15 8 S 50 0,0
15.11.2018 20:00:00 4,9 -0,3 16 8 27 15 SW 50 0,0
15.11.2018 19:00:00 1,8 -0,1 11 6 25 14 SW 50 0,0
15.11.2018 18:00:00 3,1 0,5 21 11 31 17 SSW 50 0,0
15.11.2018 17:00:00 2,9 0,3 20 11 31 17 SSW 50 0,0
15.11.2018 16:00:00 2,6 0,0 22 12 29 16 S 50 0,0
15.11.2018 15:00:00 2,5 0,1 15 8 20 11 SSW 50 0,0
15.11.2018 14:00:00 2,2 -0,2 11 6 17 9 SSW 50 0,0
15.11.2018 13:00:00 3,6 0,1 9 5 29 16 SSE 50 0,0
15.11.2018 12:00:00 2,5 -0,4 10 6 26 14 ESE 50 0,0
15.11.2018 11:00:00 1,0 -0,9 11 6 28 15 E 50 0,0
15.11.2018 10:00:00 1,2 -0,9 20 11 31 17 SSW 50 0,0
15.11.2018 09:00:00 2,1 -0,5 23 12 34 18 SSW 50 0,0
15.11.2018 08:00:00 1,2 -0,9 18 10 28 15 S 50 0,0
15.11.2018 07:00:00 -0,5 -1,8 13 7 20 11 SSW 50 0,0
15.11.2018 06:00:00 -0,2 -1,6 8 5 31 17 SSW 50 0,0
15.11.2018 05:00:00 0,2 -1,4 19 10 28 15 SSE 50 0,0
15.11.2018 04:00:00 0,8 -0,8 19 10 31 17 E 50 0,0
15.11.2018 03:00:00 0,6 -0,9 22 12 32 18 ESE 50 0,0
15.11.2018 02:00:00 0,3 -1,0 27 15 40 22 S 50 0,0
15.11.2018 01:00:00 -0,6 -1,6 11 6 45 24 ESE 50 0,0
15.11.2018 00:00:00 -0,3 -1,3 14 7 32 17 SE 50 0,0
14.11.2018 23:00:00 -1,0 -1,7 15 8 23 12 SSE 50 0,0
14.11.2018 22:00:00 -1,3 -2,3 12 6 24 13 SSE 50 0,0
14.11.2018 21:00:00 -1,6 -2,4 13 7 27 15 S 50 0,0
14.11.2018 20:00:00 -2,7 -3,5 10 5 16 9 SW 50 0,0
14.11.2018 19:00:00 -3,4 -3,9 7 4 16 9 S 50 0,0
14.11.2018 18:00:00 -5,1 -5,5 6 3 9 5 SSE 50 0,0
14.11.2018 17:00:00 -4,0 -4,3 5 3 8 5 ESE 50 0,0
14.11.2018 16:00:00 -3,8 -4,6 0 0 9 5 N 50 0,0
14.11.2018 15:00:00 -4,5 -5,3 5 3 9 5 S 50 0,0
14.11.2018 14:00:00 -4,5 -5,0 7 4 9 5 SSW 50 0,0
14.11.2018 13:00:00 -3,3 -4,1 4 2 11 6 NW 50 0,0
14.11.2018 12:00:00 -3,3 -3,8 4 2 6 3 SW 50 0,0
14.11.2018 11:00:00 -4,2 -4,7 2 1 8 5 SSW 50 0,0
14.11.2018 10:00:00 -7,2 -8,0 4 2 8 4 SSE 50 0,0
14.11.2018 09:00:00 -8,4 -9,3 3 2 7 4 S 50 0,0
14.11.2018 08:00:00 -7,1 -7,8 0 0 9 5 N 50 0,0
14.11.2018 07:00:00 -6,6 -7,0 0 0 6 4 N 50 0,0
14.11.2018 06:00:00 -5,9 -6,3 3 2 6 4 S 50 0,0
14.11.2018 05:00:00 -6,3 -6,8 4 2 9 5 WNW 50 0,0
14.11.2018 04:00:00 -5,3 -5,8 4 2 16 8 SSW 50 0,0
14.11.2018 03:00:00 -4,6 -4,9 6 3 8 5 SSE 50 0,0
14.11.2018 02:00:00 -2,8 -3,1 3 1 8 5 WSW 50 0,0
14.11.2018 01:00:00 -2,2 -2,3 3 1 6 4 S 50 0,0
14.11.2018 00:00:00 -2,0 -2,1 4 2 7 4 SE 50 0,0
13.11.2018 23:00:00 -2,1 -2,4 3 1 5 3 S 50 0,0
13.11.2018 22:00:00 -1,7 -2,0 2 1 4 2 SSW 50 0,0
13.11.2018 21:00:00 -2,3 -2,6 2 1 5 3 WSW 30 0,0
13.11.2018 20:00:00 -2,1 -2,2 0 0 5 3 N 50 0,0
13.11.2018 19:00:00 -2,1 -2,2 0 0 5 3 N 50 0,0
13.11.2018 18:00:00 -2,1 -2,2 3 1 7 4 S 50 0,0
13.11.2018 17:00:00 -1,1 -1,4 6 3 10 5 E 50 0,0
13.11.2018 16:00:00 -1,3 -1,4 2 1 6 3 S 50 0,0
13.11.2018 15:00:00 -0,6 -0,6 3 2 5 3 SSE 50 0,0
13.11.2018 14:00:00 -1,0 -1,1 3 2 6 3 S 50 0,0
13.11.2018 13:00:00 -0,2 -0,3 2 1 6 4 SSW 50 0,0
13.11.2018 12:00:00 -0,2 -0,3 4 2 10 6 S 50 0,0
13.11.2018 11:00:00 -0,6 -0,6 3 2 5 3 ENE 50 0,0
13.11.2018 10:00:00 -0,3 -0,3 2 1 5 3 SE 50 0,0
13.11.2018 09:00:00 -0,9 -0,9 2 1 5 3 SSW 1,4 0,0
13.11.2018 08:00:00 -0,7 -0,7 0 0 3 2 N 1,9 0,1
13.11.2018 07:00:00 -0,3 -0,4 3 1 4 2 ENE 38 0,0
13.11.2018 06:00:00 -0,1 -0,2 0 0 1 1 N 1,0 0,2
13.11.2018 05:00:00 -0,1 -0,2 0 0 1 1 N 1,5 0,1
13.11.2018 04:00:00 0,1 0,0 0 0 1 1 N 3,9 0,1
13.11.2018 03:00:00 0,2 0,1 0 0 3 2 N 3,7 0,2
13.11.2018 02:00:00 0,5 0,2 0 0 3 2 N 12 0,0
13.11.2018 01:00:00 0,5 0,2 0 0 12 6 N 20 0,0
13.11.2018 00:00:00 0,7 0,3 9 5 19 10 SE 32 0,0
12.11.2018 23:00:00 0,7 0,3 10 5 29 16 S 30 0,0
12.11.2018 22:00:00 0,6 0,3 11 6 21 12 S 10 0,2
12.11.2018 21:00:00 0,7 0,3 14 8 21 11 SE 35 0,0
12.11.2018 20:00:00 0,9 0,6 15 8 26 14 S 21 0,5
12.11.2018 19:00:00 1,0 0,6 18 10 25 13 S 12 0,8
12.11.2018 18:00:00 0,7 0,4 18 10 32 17 S 3,4 1,0
12.11.2018 17:00:00 1,6 0,9 21 12 32 18 S 28 0,1

tt = Température de l'air
td = dewpoint
ff = Vitesse du vent
fx = gusts
dd = Direction du vent
vv = visibility
rr = Quantités de précipitations

stations d'obs. à proximité